createdAt,value
2019-05-12T00:00:13.573Z,10.50
2019-05-12T00:02:44.570Z,10.50
2019-05-12T00:05:14.829Z,10.50
2019-05-12T00:07:48.403Z,10.50
2019-05-12T00:10:19.401Z,10.60
2019-05-12T00:12:50.884Z,10.60
2019-05-12T00:15:21.327Z,10.60
2019-05-12T00:17:52.828Z,10.60
2019-05-12T00:20:23.416Z,10.60
2019-05-12T00:22:58.316Z,10.60
2019-05-12T00:25:28.948Z,10.60
2019-05-12T00:28:01.616Z,10.60
2019-05-12T00:30:39.181Z,10.70
2019-05-12T00:33:10.664Z,10.60
2019-05-12T00:35:41.988Z,10.70
2019-05-12T00:38:13.633Z,10.70
2019-05-12T00:40:43.787Z,10.70
2019-05-12T00:43:18.924Z,10.70
2019-05-12T00:45:51.796Z,10.70
2019-05-12T00:48:25.225Z,10.70
2019-05-12T00:50:58.383Z,10.70
2019-05-12T00:53:39.675Z,10.70
2019-05-12T00:56:03.005Z,10.70
2019-05-12T00:58:35.232Z,10.70
2019-05-12T01:01:07.986Z,10.70
2019-05-12T01:03:38.266Z,10.70
2019-05-12T01:06:08.609Z,10.80
2019-05-12T01:08:38.849Z,10.80
2019-05-12T01:11:10.214Z,10.80
2019-05-12T01:13:41.651Z,10.80
2019-05-12T01:16:12.901Z,10.80
2019-05-12T01:18:44.481Z,10.70
2019-05-12T01:21:15.519Z,10.80
2019-05-12T01:24:03.366Z,10.80
2019-05-12T01:26:32.896Z,10.80
2019-05-12T01:29:05.164Z,10.80
2019-05-12T01:31:39.832Z,10.80
2019-05-12T01:34:13.071Z,10.80
2019-05-12T01:36:43.651Z,10.80
2019-05-12T01:39:13.738Z,10.80
2019-05-12T01:41:44.841Z,10.80
2019-05-12T01:44:18.208Z,10.80
2019-05-12T01:46:49.591Z,10.80
2019-05-12T01:49:20.181Z,10.90
2019-05-12T01:51:51.770Z,10.90
2019-05-12T01:54:21.814Z,10.90
2019-05-12T01:56:54.391Z,10.90
2019-05-12T01:59:28.719Z,10.90
2019-05-12T02:01:58.972Z,10.90
2019-05-12T02:04:32.011Z,10.90
2019-05-12T02:07:04.201Z,10.90
2019-05-12T02:09:35.800Z,10.90
2019-05-12T02:12:08.209Z,10.90
2019-05-12T02:14:39.191Z,10.80
2019-05-12T02:17:11.812Z,10.90
2019-05-12T02:19:44.719Z,10.90
2019-05-12T02:22:15.274Z,10.80
2019-05-12T02:24:47.867Z,10.90
2019-05-12T02:27:19.356Z,10.90
2019-05-12T02:29:49.756Z,10.90
2019-05-12T02:32:23.767Z,10.90
2019-05-12T02:34:54.746Z,10.90
2019-05-12T02:37:26.201Z,10.90
2019-05-12T02:39:57.840Z,10.80
2019-05-12T02:42:29.266Z,10.90
2019-05-12T02:44:59.616Z,10.90
2019-05-12T02:47:30.832Z,10.80
2019-05-12T02:50:00.943Z,10.90
2019-05-12T02:52:34.763Z,10.90
2019-05-12T02:55:06.833Z,10.90
2019-05-12T02:57:39.881Z,10.90
2019-05-12T03:00:16.050Z,10.90
2019-05-12T03:02:46.176Z,10.90
2019-05-12T03:05:20.962Z,10.90
2019-05-12T03:07:55.267Z,10.90
2019-05-12T03:10:27.266Z,11.00
2019-05-12T03:12:57.827Z,11.00
2019-05-12T03:15:28.186Z,11.00
2019-05-12T03:17:58.831Z,11.00
2019-05-12T03:20:29.210Z,11.00
2019-05-12T03:23:11.284Z,11.00
2019-05-12T03:25:45.620Z,11.00
2019-05-12T03:28:16.629Z,11.00
2019-05-12T03:30:48.835Z,11.10
2019-05-12T03:33:20.057Z,11.10
2019-05-12T03:36:00.181Z,11.10
2019-05-12T03:38:27.693Z,11.20
2019-05-12T03:40:58.153Z,11.20
2019-05-12T03:43:30.991Z,11.20
2019-05-12T03:46:04.957Z,11.20
2019-05-12T03:48:35.076Z,11.30
2019-05-12T03:51:06.448Z,11.30
2019-05-12T03:53:37.572Z,11.30
2019-05-12T03:56:08.685Z,11.30
2019-05-12T03:58:39.153Z,11.40
2019-05-12T04:01:11.004Z,11.40
2019-05-12T04:03:44.789Z,11.40
2019-05-12T04:06:15.599Z,11.50
2019-05-12T04:08:46.632Z,11.50
2019-05-12T04:11:17.778Z,11.50
2019-05-12T04:13:49.475Z,11.60
2019-05-12T04:16:24.435Z,11.70
2019-05-12T04:18:55.212Z,11.70
2019-05-12T04:21:25.335Z,11.70
2019-05-12T04:23:58.937Z,11.80
2019-05-12T04:26:35.785Z,11.80
2019-05-12T04:29:05.289Z,11.80
2019-05-12T04:31:39.199Z,11.80
2019-05-12T04:34:14.293Z,11.90
2019-05-12T04:36:44.977Z,11.90
2019-05-12T04:39:19.387Z,12.00
2019-05-12T04:41:54.999Z,12.00
2019-05-12T04:44:25.940Z,12.00
2019-05-12T04:47:00.203Z,12.10
2019-05-12T04:49:30.773Z,12.10
2019-05-12T04:52:04.984Z,12.10
2019-05-12T04:54:35.566Z,12.20
2019-05-12T04:57:07.232Z,12.20
2019-05-12T04:59:39.392Z,12.30
2019-05-12T05:02:15.057Z,12.30
2019-05-12T05:04:46.886Z,12.40
2019-05-12T05:07:18.783Z,12.40
2019-05-12T05:09:51.029Z,12.50
2019-05-12T05:12:24.014Z,12.50
2019-05-12T05:14:57.657Z,12.60
2019-05-12T05:17:30.300Z,12.70
2019-05-12T05:20:00.808Z,12.70
2019-05-12T05:22:33.431Z,12.80
2019-05-12T05:25:04.783Z,12.90
2019-05-12T05:27:36.784Z,13.00
2019-05-12T05:30:07.940Z,13.10
2019-05-12T05:32:38.855Z,13.10
2019-05-12T05:35:13.317Z,13.20
2019-05-12T05:37:44.735Z,13.40
2019-05-12T05:40:19.924Z,13.50
2019-05-12T05:42:48.795Z,13.60
2019-05-12T05:45:24.163Z,13.70
2019-05-12T05:47:59.549Z,13.80
2019-05-12T05:50:30.174Z,13.90
2019-05-12T05:53:00.509Z,14.00
2019-05-12T05:55:34.406Z,14.10
2019-05-12T05:58:10.095Z,14.20
2019-05-12T06:00:39.275Z,14.20
2019-05-12T06:03:17.044Z,14.30
2019-05-12T06:05:42.886Z,14.40
2019-05-12T06:08:18.583Z,14.50
2019-05-12T06:10:50.374Z,14.50
2019-05-12T06:13:29.956Z,14.60
2019-05-12T06:15:55.977Z,14.60
2019-05-12T06:18:29.129Z,14.60
2019-05-12T06:21:03.490Z,14.70
2019-05-12T06:23:39.182Z,14.70
2019-05-12T06:26:10.732Z,14.80
2019-05-12T06:28:45.468Z,14.80
2019-05-12T06:31:18.988Z,14.90
2019-05-12T06:33:53.614Z,14.90
2019-05-12T06:36:27.209Z,15.00
2019-05-12T06:39:00.915Z,15.00
2019-05-12T06:41:33.642Z,15.10
2019-05-12T06:44:08.733Z,15.20
2019-05-12T06:46:44.102Z,15.20
2019-05-12T06:49:17.519Z,15.30
2019-05-12T06:51:53.675Z,15.40
2019-05-12T06:54:24.760Z,15.40
2019-05-12T06:57:18.548Z,15.50
2019-05-12T06:59:33.903Z,15.50
2019-05-12T07:02:08.379Z,15.50
2019-05-12T07:04:47.452Z,15.60
2019-05-12T07:07:15.659Z,15.70
2019-05-12T07:09:53.757Z,15.80
2019-05-12T07:12:26.895Z,15.90
2019-05-12T07:14:57.083Z,16.00
2019-05-12T07:17:43.918Z,16.10
2019-05-12T07:20:10.245Z,16.20
2019-05-12T07:22:45.811Z,16.30
2019-05-12T07:25:15.699Z,16.40
2019-05-12T07:27:54.971Z,16.50
2019-05-12T07:30:32.662Z,16.60
2019-05-12T07:33:04.843Z,16.70
2019-05-12T07:35:36.515Z,16.80
2019-05-12T07:38:12.030Z,16.90
2019-05-12T07:40:44.789Z,17.00
2019-05-12T07:43:20.511Z,17.20
2019-05-12T07:45:56.637Z,17.30
2019-05-12T07:48:26.620Z,17.40
2019-05-12T07:51:00.535Z,17.50
2019-05-12T07:53:30.920Z,17.70
2019-05-12T07:56:04.105Z,17.80
2019-05-12T07:58:41.054Z,17.90
2019-05-12T08:01:11.211Z,18.00
2019-05-12T08:03:43.665Z,18.20
2019-05-12T08:06:16.096Z,18.30
2019-05-12T08:09:13.429Z,18.40
2019-05-12T08:11:47.028Z,18.50
2019-05-12T08:14:25.946Z,18.60
2019-05-12T08:16:54.960Z,18.70
2019-05-12T08:19:28.633Z,18.80
2019-05-12T08:22:00.605Z,18.90
2019-05-12T08:24:35.391Z,19.00
2019-05-12T08:27:06.976Z,19.10
2019-05-12T08:29:43.309Z,19.30
2019-05-12T08:32:20.509Z,19.40
2019-05-12T08:34:54.142Z,19.50
2019-05-12T08:37:29.534Z,19.60
2019-05-12T08:40:04.354Z,19.70
2019-05-12T08:42:35.186Z,19.80
2019-05-12T08:45:13.672Z,19.90
2019-05-12T08:47:41.257Z,20.00
2019-05-12T08:50:15.450Z,20.10
2019-05-12T08:52:47.132Z,20.30
2019-05-12T08:55:22.781Z,20.40
2019-05-12T08:57:54.060Z,20.50
2019-05-12T09:00:39.730Z,20.60
2019-05-12T09:03:10.939Z,20.70
2019-05-12T09:05:44.330Z,20.90
2019-05-12T09:08:16.480Z,21.00
2019-05-12T09:10:50.388Z,21.10
2019-05-12T09:13:23.473Z,21.20
2019-05-12T09:15:55.587Z,21.30
2019-05-12T09:18:33.507Z,21.30
2019-05-12T09:21:00.832Z,21.40
2019-05-12T09:23:41.121Z,21.50
2019-05-12T09:26:09.603Z,21.60
2019-05-12T09:31:33.784Z,21.80
2019-05-12T09:34:11.985Z,22.00
2019-05-12T09:36:51.889Z,22.10
2019-05-12T09:39:23.487Z,22.30
2019-05-12T09:41:57.190Z,22.50
2019-05-12T09:44:30.562Z,22.70
2019-05-12T09:47:04.098Z,22.80
2019-05-12T09:49:39.229Z,23.00
2019-05-12T09:52:13.818Z,23.20
2019-05-12T09:54:49.393Z,23.30
2019-05-12T09:57:20.134Z,23.40
2019-05-12T09:59:59.503Z,23.60
2019-05-12T10:02:26.667Z,23.80
2019-05-12T10:05:03.717Z,23.90
2019-05-12T10:07:35.231Z,24.00
2019-05-12T10:10:06.888Z,24.00
2019-05-12T10:12:46.351Z,24.10
2019-05-12T10:15:26.681Z,24.10
2019-05-12T10:18:00.129Z,24.10
2019-05-12T10:20:40.835Z,24.20
2019-05-12T10:23:16.524Z,24.20
2019-05-12T10:25:47.612Z,24.20
2019-05-12T10:28:18.727Z,24.20
2019-05-12T10:30:56.816Z,24.20
2019-05-12T10:33:26.941Z,24.20
2019-05-12T10:36:06.806Z,24.20
2019-05-12T10:38:39.301Z,24.10
2019-05-12T10:41:14.288Z,24.00
2019-05-12T10:43:56.660Z,24.00
2019-05-12T10:46:53.795Z,24.00
2019-05-12T10:49:33.895Z,24.00
2019-05-12T10:52:14.168Z,24.10
2019-05-12T10:54:46.439Z,24.20
2019-05-12T10:57:19.448Z,24.40
2019-05-12T10:59:53.380Z,24.40
2019-05-12T11:02:30.478Z,24.50
2019-05-12T11:05:00.800Z,24.80
2019-05-12T11:07:34.082Z,25.10
2019-05-12T11:10:15.431Z,25.40
2019-05-12T11:12:40.342Z,25.60
2019-05-12T11:15:26.583Z,25.70
2019-05-12T11:18:08.970Z,25.80
2019-05-12T11:20:41.989Z,26.00
2019-05-12T11:23:14.190Z,26.20
2019-05-12T11:25:46.907Z,26.30
2019-05-12T11:28:19.817Z,26.40
2019-05-12T11:30:51.443Z,26.50
2019-05-12T11:33:23.818Z,26.50
2019-05-12T11:35:56.153Z,26.60
2019-05-12T11:38:29.429Z,26.60
2019-05-12T11:41:00.144Z,26.50
2019-05-12T11:43:33.729Z,26.60
2019-05-12T11:46:08.680Z,26.50
2019-05-12T11:48:40.461Z,26.50
2019-05-12T11:51:14.525Z,26.50
2019-05-12T11:53:45.342Z,26.50
2019-05-12T11:56:17.150Z,26.50
2019-05-12T11:58:51.474Z,26.40
2019-05-12T12:01:24.261Z,26.30
2019-05-12T12:03:56.567Z,26.30
2019-05-12T12:06:28.588Z,26.30
2019-05-12T12:09:00.828Z,26.20
2019-05-12T12:11:35.028Z,26.00
2019-05-12T12:14:10.664Z,26.00
2019-05-12T12:16:50.109Z,26.10
2019-05-12T12:19:19.421Z,26.20
2019-05-12T12:21:53.573Z,26.40
2019-05-12T12:24:31.207Z,26.50
2019-05-12T12:27:00.647Z,26.50
2019-05-12T12:29:34.538Z,26.40
2019-05-12T12:32:18.359Z,26.30
2019-05-12T12:34:49.438Z,26.30
2019-05-12T12:37:24.093Z,26.50
2019-05-12T12:39:58.222Z,26.50
2019-05-12T12:42:35.881Z,26.50
2019-05-12T12:45:16.078Z,26.60
2019-05-12T12:47:49.353Z,26.80
2019-05-12T12:50:26.398Z,26.70
2019-05-12T12:52:56.064Z,26.50
2019-05-12T12:55:26.797Z,26.40
2019-05-12T12:57:58.879Z,26.30
2019-05-12T13:00:38.029Z,26.10
2019-05-12T13:03:05.788Z,26.00
2019-05-12T13:05:36.980Z,25.90
2019-05-12T13:08:09.725Z,25.80
2019-05-12T13:10:46.179Z,25.60
2019-05-12T13:13:14.191Z,25.40
2019-05-12T13:15:45.798Z,25.30
2019-05-12T13:18:32.881Z,25.20
2019-05-12T13:21:03.365Z,25.20
2019-05-12T13:23:40.766Z,25.10
2019-05-12T13:26:13.348Z,25.00
2019-05-12T13:28:52.993Z,24.90
2019-05-12T13:31:18.820Z,24.80
2019-05-12T13:33:54.950Z,24.60
2019-05-12T13:36:35.481Z,24.50
2019-05-12T13:39:11.346Z,24.40
2019-05-12T13:41:39.151Z,24.30
2019-05-12T13:44:10.448Z,24.20
2019-05-12T13:46:43.701Z,24.10
2019-05-12T13:49:15.963Z,24.10
2019-05-12T13:51:50.415Z,24.00
2019-05-12T13:54:28.544Z,23.90
2019-05-12T13:56:57.379Z,23.80
2019-05-12T13:59:30.464Z,23.80
2019-05-12T14:02:03.398Z,23.70
2019-05-12T14:04:35.197Z,23.60
2019-05-12T14:07:09.235Z,23.50
2019-05-12T14:09:43.585Z,23.40
2019-05-12T14:12:15.221Z,23.30
2019-05-12T14:14:46.973Z,23.20
2019-05-12T14:17:19.437Z,23.00
2019-05-12T14:19:53.293Z,22.90
2019-05-12T14:22:26.593Z,22.80
2019-05-12T14:25:01.979Z,22.70
2019-05-12T14:27:33.689Z,22.60
2019-05-12T14:30:09.886Z,22.50
2019-05-12T14:32:38.433Z,22.40
2019-05-12T14:35:09.432Z,22.30
2019-05-12T14:37:45.991Z,22.10
2019-05-12T14:40:21.135Z,21.90
2019-05-12T14:42:49.668Z,21.20
2019-05-12T14:45:25.691Z,20.40
2019-05-12T14:47:54.119Z,19.70
2019-05-12T14:50:25.119Z,19.20
2019-05-12T14:52:59.747Z,18.60
2019-05-12T14:55:33.561Z,18.10
2019-05-12T14:58:09.351Z,17.80
2019-05-12T15:00:40.032Z,17.50
2019-05-12T15:03:16.261Z,17.20
2019-05-12T15:05:48.713Z,17.00
2019-05-12T15:08:35.972Z,16.80
2019-05-12T15:11:03.947Z,16.70
2019-05-12T15:13:35.757Z,16.50
2019-05-12T15:16:08.490Z,16.40
2019-05-12T15:18:46.560Z,16.30
2019-05-12T15:21:21.418Z,16.20
2019-05-12T15:23:53.187Z,16.20
2019-05-12T15:26:26.362Z,16.00
2019-05-12T15:28:59.291Z,15.90
2019-05-12T15:31:33.703Z,15.90
2019-05-12T15:34:09.189Z,15.70
2019-05-12T15:36:45.933Z,15.70
2019-05-12T15:39:15.424Z,15.60
2019-05-12T15:41:46.304Z,15.60
2019-05-12T15:44:23.221Z,15.50
2019-05-12T15:46:57.605Z,15.50
2019-05-12T15:49:29.088Z,15.40
2019-05-12T15:52:03.539Z,15.40
2019-05-12T15:54:36.385Z,15.30
2019-05-12T15:57:06.878Z,15.20
2019-05-12T15:59:38.337Z,15.10
2019-05-12T16:02:14.619Z,15.00
2019-05-12T16:04:44.443Z,14.80
2019-05-12T16:07:17.909Z,14.70
2019-05-12T16:09:50.677Z,14.60
2019-05-12T16:12:24.394Z,14.60
2019-05-12T16:14:56.245Z,14.50
2019-05-12T16:17:29.239Z,14.40
2019-05-12T16:20:09.075Z,14.40
2019-05-12T16:22:49.351Z,14.30
2019-05-12T16:25:27.368Z,14.20
2019-05-12T16:28:07.765Z,14.10
2019-05-12T16:30:43.886Z,14.10
2019-05-12T16:33:39.732Z,14.10
2019-05-12T16:36:26.771Z,14.00
2019-05-12T16:39:17.095Z,13.90
2019-05-12T16:42:08.282Z,13.90
2019-05-12T16:45:23.470Z,13.80
2019-05-12T16:48:28.654Z,13.80
2019-05-12T16:51:16.933Z,13.80
2019-05-12T16:54:48.695Z,13.70
2019-05-12T16:57:33.622Z,13.70
2019-05-12T17:00:31.125Z,13.60
2019-05-12T17:03:18.188Z,13.60
2019-05-12T17:06:14.284Z,13.50
2019-05-12T17:09:21.343Z,13.50
2019-05-12T17:12:15.929Z,13.50
2019-05-12T17:15:14.607Z,13.50
2019-05-12T17:18:04.405Z,13.50
2019-05-12T17:21:00.583Z,13.40
2019-05-12T17:23:53.118Z,13.40
2019-05-12T17:26:38.237Z,13.40
2019-05-12T17:29:33.418Z,13.40
2019-05-12T17:32:13.387Z,13.30
2019-05-12T17:34:59.192Z,13.30
2019-05-12T17:37:37.458Z,13.30
2019-05-12T17:40:09.184Z,13.20
2019-05-12T17:42:44.111Z,13.10
2019-05-12T17:45:23.561Z,13.10
2019-05-12T17:48:02.858Z,13.00
2019-05-12T17:50:34.613Z,13.00
2019-05-12T17:53:07.301Z,13.00
2019-05-12T17:55:44.359Z,12.90
2019-05-12T17:58:13.691Z,12.80
2019-05-12T18:00:51.688Z,12.80
2019-05-12T18:03:25.550Z,12.80
2019-05-12T18:05:55.218Z,12.80
2019-05-12T18:08:32.433Z,12.80
2019-05-12T18:11:03.697Z,12.70
2019-05-12T18:13:39.802Z,12.60
2019-05-12T18:16:11.550Z,12.60
2019-05-12T18:18:49.294Z,12.50
2019-05-12T18:21:21.895Z,12.40
2019-05-12T18:24:00.466Z,12.30
2019-05-12T18:26:29.475Z,12.30
2019-05-12T18:29:00.383Z,12.30
2019-05-12T18:31:33.966Z,12.30
2019-05-12T18:34:25.126Z,12.20
2019-05-12T18:37:00.386Z,12.20
2019-05-12T18:39:34.420Z,12.10
2019-05-12T18:42:06.873Z,12.10
2019-05-12T18:44:37.472Z,12.10
2019-05-12T18:47:13.427Z,12.00
2019-05-12T18:49:47.897Z,11.90
2019-05-12T18:52:19.710Z,11.90
2019-05-12T18:54:52.604Z,11.90
2019-05-12T18:57:24.567Z,11.80
2019-05-12T19:00:03.495Z,11.80
2019-05-12T19:02:33.451Z,11.70
2019-05-12T19:05:05.870Z,11.60
2019-05-12T19:07:40.133Z,11.60
2019-05-12T19:10:19.738Z,11.50
2019-05-12T19:13:01.316Z,11.50
2019-05-12T19:15:35.859Z,11.40
2019-05-12T19:18:10.699Z,11.30
2019-05-12T19:20:48.162Z,11.20
2019-05-12T19:23:26.001Z,11.20
2019-05-12T19:25:57.008Z,11.10
2019-05-12T19:28:31.037Z,11.10
2019-05-12T19:31:09.984Z,11.00
2019-05-12T19:33:49.034Z,11.00
2019-05-12T19:36:27.195Z,10.90
2019-05-12T19:39:09.912Z,10.90
2019-05-12T19:41:43.471Z,10.80
2019-05-12T19:44:20.086Z,10.80
2019-05-12T19:46:54.111Z,10.80
2019-05-12T19:49:43.428Z,10.80
2019-05-12T19:52:03.585Z,10.70
2019-05-12T19:54:40.138Z,10.60
2019-05-12T19:57:21.608Z,10.60
2019-05-12T19:59:50.895Z,10.60
2019-05-12T20:02:24.244Z,10.60
2019-05-12T20:04:56.969Z,10.60
2019-05-12T20:07:37.360Z,10.60
2019-05-12T20:10:13.899Z,10.60
2019-05-12T20:12:48.848Z,10.50
2019-05-12T20:15:23.987Z,10.40
2019-05-12T20:17:59.385Z,10.40
2019-05-12T20:20:36.596Z,10.30
2019-05-12T20:23:03.612Z,10.30
2019-05-12T20:25:38.541Z,10.30
2019-05-12T20:28:14.442Z,10.30
2019-05-12T20:30:43.962Z,10.20
2019-05-12T20:33:18.706Z,10.20
2019-05-12T20:35:51.146Z,10.20
2019-05-12T20:38:25.445Z,10.20
2019-05-12T20:40:58.802Z,10.20
2019-05-12T20:43:35.597Z,10.20
2019-05-12T20:46:13.044Z,10.20
2019-05-12T20:48:45.483Z,10.20
2019-05-12T20:51:20.086Z,10.10
2019-05-12T20:53:50.843Z,10.10
2019-05-12T20:56:24.973Z,10.10
2019-05-12T20:58:56.977Z,10.00
2019-05-12T21:01:30.368Z,10.00
2019-05-12T21:04:03.612Z,10.00
2019-05-12T21:06:41.586Z,9.90
2019-05-12T21:09:09.289Z,9.90
2019-05-12T21:11:44.237Z,9.90
2019-05-12T21:14:16.597Z,9.80
2019-05-12T21:16:50.305Z,9.70
2019-05-12T21:19:24.084Z,9.70
2019-05-12T21:21:59.174Z,9.70
2019-05-12T21:24:35.946Z,9.70
2019-05-12T21:27:03.831Z,9.60
2019-05-12T21:29:35.316Z,9.60
2019-05-12T21:32:12.029Z,9.60
2019-05-12T21:34:43.549Z,9.60
2019-05-12T21:37:16.011Z,9.60
2019-05-12T21:39:50.921Z,9.60
2019-05-12T21:42:24.925Z,9.60
2019-05-12T21:44:56.803Z,9.60
2019-05-12T21:47:36.432Z,9.50
2019-05-12T21:50:03.945Z,9.50
2019-05-12T21:52:39.131Z,9.50
2019-05-12T21:55:15.390Z,9.50
2019-05-12T21:57:43.732Z,9.50
2019-05-12T22:00:24.629Z,9.50
2019-05-12T22:03:02.593Z,9.50
2019-05-12T22:05:48.149Z,9.50
2019-05-12T22:08:06.399Z,9.50
2019-05-12T22:10:37.737Z,9.50
2019-05-12T22:13:15.210Z,9.40
2019-05-12T22:15:44.221Z,9.40
2019-05-12T22:18:15.916Z,9.40
2019-05-12T22:20:52.306Z,9.40
2019-05-12T22:23:21.117Z,9.30
2019-05-12T22:25:55.612Z,9.30
2019-05-12T22:28:28.424Z,9.40
2019-05-12T22:30:59.242Z,9.30
2019-05-12T22:33:33.429Z,9.30
2019-05-12T22:36:14.537Z,9.30
2019-05-12T22:38:39.257Z,9.30
2019-05-12T22:41:13.644Z,9.30
2019-05-12T22:43:46.230Z,9.30
2019-05-12T22:46:23.300Z,9.20
2019-05-12T22:48:53.546Z,9.20
2019-05-12T22:51:26.836Z,9.20
2019-05-12T22:54:00.406Z,9.20
2019-05-12T22:56:34.306Z,9.20
2019-05-12T22:59:07.676Z,9.10
2019-05-12T23:01:41.612Z,9.10
2019-05-12T23:04:10.822Z,9.10
2019-05-12T23:06:46.658Z,9.10
2019-05-12T23:09:19.405Z,9.10
2019-05-12T23:11:53.587Z,9.10
2019-05-12T23:14:25.135Z,9.10
2019-05-12T23:17:00.254Z,9.10
2019-05-12T23:19:28.914Z,9.10
2019-05-12T23:21:59.362Z,9.10
2019-05-12T23:24:35.981Z,9.10
2019-05-12T23:27:05.915Z,9.10
2019-05-12T23:29:37.688Z,9.10
2019-05-12T23:32:11.956Z,9.10
2019-05-12T23:35:00.226Z,9.00
2019-05-12T23:37:38.360Z,9.00
2019-05-12T23:40:11.505Z,9.00
2019-05-12T23:42:40.846Z,9.00
2019-05-12T23:45:13.782Z,9.00
2019-05-12T23:47:46.368Z,9.00
2019-05-12T23:50:30.189Z,9.00
2019-05-12T23:53:03.863Z,9.00
2019-05-12T23:55:35.019Z,8.90
2019-05-12T23:58:05.574Z,8.90
